createdAt,value
2022-12-17T00:01:30.901Z,58.10
2022-12-17T00:04:36.701Z,66.40
2022-12-17T00:07:42.215Z,65.00
2022-12-17T00:10:48.077Z,62.43
2022-12-17T00:13:53.810Z,70.60
2022-12-17T00:17:00.704Z,74.67
2022-12-17T00:20:06.235Z,66.50
2022-12-17T00:23:23.936Z,65.03
2022-12-17T00:26:29.670Z,59.97
2022-12-17T00:29:35.589Z,64.50
2022-12-17T00:32:41.079Z,58.67
2022-12-17T00:35:46.474Z,62.27
2022-12-17T00:38:51.991Z,59.17
2022-12-17T00:41:57.433Z,66.87
2022-12-17T00:45:02.594Z,56.67
2022-12-17T00:48:08.147Z,58.00
2022-12-17T00:51:13.845Z,61.30
2022-12-17T00:54:19.166Z,57.47
2022-12-17T00:57:24.603Z,58.00
2022-12-17T01:00:31.081Z,52.13
2022-12-17T01:03:36.968Z,57.77
2022-12-17T01:06:42.917Z,56.93
2022-12-17T01:09:48.073Z,55.87
2022-12-17T01:12:53.879Z,56.20
2022-12-17T01:16:01.639Z,54.70
2022-12-17T01:19:07.489Z,50.23
2022-12-17T01:22:12.625Z,57.97
2022-12-17T01:25:17.870Z,54.23
2022-12-17T01:28:23.460Z,56.07
2022-12-17T01:31:34.577Z,58.83
2022-12-17T01:34:39.983Z,53.87
2022-12-17T01:37:45.481Z,55.77
2022-12-17T01:40:51.640Z,56.10
2022-12-17T01:43:57.844Z,47.67
2022-12-17T01:47:09.366Z,48.13
2022-12-17T01:50:15.059Z,62.63
2022-12-17T01:53:22.970Z,50.67
2022-12-17T01:56:29.152Z,48.80
2022-12-17T01:59:38.334Z,46.57
2022-12-17T02:02:44.227Z,45.83
2022-12-17T02:06:21.482Z,44.90
2022-12-17T02:10:08.439Z,46.93
2022-12-17T02:13:20.811Z,51.53
2022-12-17T02:16:32.459Z,46.53
2022-12-17T02:19:52.996Z,49.43
2022-12-17T02:23:17.561Z,49.53
2022-12-17T02:26:34.389Z,46.23
2022-12-17T02:29:42.477Z,48.77
2022-12-17T02:32:49.266Z,48.97
2022-12-17T02:35:59.832Z,51.57
2022-12-17T02:39:05.365Z,56.00
2022-12-17T02:42:15.276Z,48.10
2022-12-17T02:45:23.122Z,45.03
2022-12-17T02:48:30.966Z,50.83
2022-12-17T02:51:36.845Z,49.83
2022-12-17T02:54:42.072Z,51.50
2022-12-17T02:57:53.538Z,49.57
2022-12-17T03:00:59.780Z,48.50
2022-12-17T03:04:07.040Z,43.50
2022-12-17T03:07:12.287Z,54.03
2022-12-17T03:10:18.030Z,46.93
2022-12-17T03:13:23.877Z,52.67
2022-12-17T03:16:35.754Z,52.30
2022-12-17T03:19:43.365Z,50.73
2022-12-17T03:22:49.133Z,53.93
2022-12-17T03:25:54.481Z,50.83
2022-12-17T03:28:59.691Z,49.47
2022-12-17T03:32:08.134Z,59.03
2022-12-17T03:35:13.281Z,54.90
2022-12-17T03:38:18.400Z,48.00
2022-12-17T03:41:25.118Z,51.13
2022-12-17T03:44:30.428Z,51.43
2022-12-17T03:47:36.092Z,49.13
2022-12-17T03:50:41.413Z,51.03
2022-12-17T03:53:46.679Z,46.20
2022-12-17T03:56:52.869Z,51.97
2022-12-17T03:59:58.258Z,48.70
2022-12-17T04:03:04.234Z,48.60
2022-12-17T04:06:09.461Z,46.83
2022-12-17T04:09:15.209Z,46.83
2022-12-17T04:12:20.746Z,42.53
2022-12-17T04:15:26.501Z,46.07
2022-12-17T04:18:31.751Z,50.90
2022-12-17T04:21:37.291Z,44.67
2022-12-17T04:24:42.545Z,43.70
2022-12-17T04:27:47.684Z,40.80
2022-12-17T04:30:53.415Z,44.20
2022-12-17T04:33:59.204Z,41.47
2022-12-17T04:37:04.491Z,38.33
2022-12-17T04:40:10.145Z,46.73
2022-12-17T04:43:15.817Z,46.30
2022-12-17T04:46:21.699Z,48.47
2022-12-17T04:49:26.892Z,45.07
2022-12-17T04:52:32.150Z,45.00
2022-12-17T04:55:37.597Z,45.33
2022-12-17T04:58:44.923Z,43.13
2022-12-17T05:01:50.787Z,44.23
2022-12-17T05:04:56.187Z,45.50
2022-12-17T05:08:02.063Z,44.93
2022-12-17T05:11:07.380Z,48.60
2022-12-17T05:14:12.910Z,44.60
2022-12-17T05:17:18.378Z,43.27
2022-12-17T05:20:24.565Z,41.83
2022-12-17T05:23:29.902Z,43.40
2022-12-17T05:26:42.131Z,43.33
2022-12-17T05:29:47.438Z,40.93
2022-12-17T05:32:52.510Z,45.97
2022-12-17T05:35:57.772Z,47.23
2022-12-17T05:39:03.214Z,47.87
2022-12-17T05:42:08.790Z,43.70
2022-12-17T05:45:14.196Z,47.23
2022-12-17T05:48:19.308Z,52.40
2022-12-17T05:51:24.602Z,47.70
2022-12-17T05:54:29.997Z,44.77
2022-12-17T05:57:35.557Z,48.17
2022-12-17T06:00:42.248Z,44.27
2022-12-17T06:03:47.693Z,44.03
2022-12-17T06:06:53.335Z,42.60
2022-12-17T06:10:01.581Z,48.83
2022-12-17T06:13:14.516Z,50.27
2022-12-17T06:16:20.217Z,45.77
2022-12-17T06:19:25.756Z,48.87
2022-12-17T06:22:31.523Z,49.90
2022-12-17T06:25:36.717Z,46.13
2022-12-17T06:28:42.051Z,53.67
2022-12-17T06:31:47.476Z,53.97
2022-12-17T06:34:53.212Z,50.67
2022-12-17T06:37:58.361Z,50.00
2022-12-17T06:41:04.145Z,53.93
2022-12-17T06:44:10.012Z,47.70
2022-12-17T06:47:15.784Z,48.57
2022-12-17T06:50:21.558Z,51.10
2022-12-17T06:53:27.422Z,47.93
2022-12-17T06:56:33.152Z,46.83
2022-12-17T06:59:38.435Z,54.43
2022-12-17T07:02:44.088Z,43.27
2022-12-17T07:05:49.200Z,49.47
2022-12-17T07:08:54.452Z,54.93
2022-12-17T07:11:59.681Z,51.07
2022-12-17T07:15:05.368Z,46.90
2022-12-17T07:18:15.609Z,49.77
2022-12-17T07:21:21.392Z,47.97
2022-12-17T07:24:42.321Z,43.03
2022-12-17T07:27:55.641Z,44.97
2022-12-17T07:31:00.915Z,47.80
2022-12-17T07:34:06.263Z,48.43
2022-12-17T07:37:14.941Z,42.73
2022-12-17T07:40:25.173Z,44.47
2022-12-17T07:43:31.680Z,48.47
2022-12-17T07:46:37.192Z,52.97
2022-12-17T07:49:42.731Z,46.67
2022-12-17T07:52:48.192Z,48.73
2022-12-17T07:55:53.318Z,49.97
2022-12-17T07:58:58.786Z,47.63
2022-12-17T08:02:04.506Z,48.83
2022-12-17T08:05:09.708Z,45.97
2022-12-17T08:08:14.893Z,48.73
2022-12-17T08:11:20.641Z,53.53
2022-12-17T08:14:25.960Z,47.47
2022-12-17T08:17:33.197Z,54.20
2022-12-17T08:20:39.095Z,50.03
2022-12-17T08:23:44.275Z,50.03
2022-12-17T08:26:49.500Z,50.67
2022-12-17T08:29:55.220Z,53.20
2022-12-17T08:33:00.310Z,53.53
2022-12-17T08:36:13.403Z,53.10
2022-12-17T08:39:18.835Z,57.10
2022-12-17T08:42:24.637Z,57.07
2022-12-17T08:45:30.786Z,53.90
2022-12-17T08:48:36.053Z,58.70
2022-12-17T08:51:42.357Z,52.67
2022-12-17T08:54:48.112Z,60.30
2022-12-17T08:58:13.404Z,64.97
2022-12-17T09:01:20.201Z,68.47
2022-12-17T09:04:25.814Z,61.00
2022-12-17T09:07:31.883Z,60.33
2022-12-17T09:10:37.361Z,64.13
2022-12-17T09:13:43.033Z,60.03
2022-12-17T09:16:48.781Z,61.40
2022-12-17T09:19:54.632Z,58.30
2022-12-17T09:23:00.265Z,60.67
2022-12-17T09:26:14.702Z,60.10
2022-12-17T09:29:19.860Z,58.57
2022-12-17T09:32:25.224Z,66.30
2022-12-17T09:35:30.900Z,69.70
2022-12-17T09:38:36.616Z,61.57
2022-12-17T09:41:44.976Z,62.00
2022-12-17T09:45:13.143Z,60.43
2022-12-17T09:48:18.446Z,63.63
2022-12-17T09:51:24.273Z,61.47
2022-12-17T09:54:56.412Z,56.83
2022-12-17T09:58:08.124Z,58.60
2022-12-17T10:01:13.911Z,62.27
2022-12-17T10:04:21.344Z,70.47
2022-12-17T10:07:33.162Z,58.07
2022-12-17T10:10:49.541Z,59.30
2022-12-17T10:13:55.324Z,59.13
2022-12-17T10:17:11.495Z,56.07
2022-12-17T10:20:17.655Z,54.23
2022-12-17T10:23:23.383Z,50.07
2022-12-17T10:26:38.437Z,54.13
2022-12-17T10:29:48.003Z,58.50
2022-12-17T10:32:53.893Z,56.90
2022-12-17T10:35:59.172Z,59.33
2022-12-17T10:39:13.007Z,57.60
2022-12-17T10:42:18.344Z,56.47
2022-12-17T10:45:44.435Z,62.43
2022-12-17T10:48:50.457Z,53.07
2022-12-17T10:51:58.261Z,48.73
2022-12-17T10:55:15.050Z,44.77
2022-12-17T10:58:21.845Z,45.20
2022-12-17T11:01:37.101Z,45.13
2022-12-17T11:04:48.400Z,45.33
2022-12-17T11:07:58.396Z,46.80
2022-12-17T11:11:05.215Z,48.77
2022-12-17T11:14:11.434Z,50.00
2022-12-17T11:17:21.184Z,40.03
2022-12-17T11:20:40.515Z,43.47
2022-12-17T11:23:46.854Z,43.43
2022-12-17T11:26:56.888Z,39.93
2022-12-17T11:30:02.673Z,40.80
2022-12-17T11:33:40.374Z,38.43
2022-12-17T11:37:10.808Z,35.63
2022-12-17T11:40:48.618Z,38.13
2022-12-17T11:44:12.556Z,37.70
2022-12-17T11:47:46.602Z,39.43
2022-12-17T11:51:15.783Z,35.97
2022-12-17T11:54:57.078Z,34.17
2022-12-17T11:58:05.345Z,35.13
2022-12-17T12:01:27.945Z,34.17
2022-12-17T12:05:08.392Z,34.33
2022-12-17T12:08:30.096Z,37.90
2022-12-17T12:12:03.715Z,36.27
2022-12-17T12:15:26.856Z,35.30
2022-12-17T12:18:43.310Z,32.97
2022-12-17T12:22:12.079Z,37.43
2022-12-17T12:25:30.534Z,36.17
2022-12-17T12:28:42.201Z,38.77
2022-12-17T12:31:59.640Z,33.27
2022-12-17T12:35:05.536Z,38.47
2022-12-17T12:38:11.304Z,33.40
2022-12-17T12:41:42.929Z,29.07
2022-12-17T12:45:19.583Z,31.97
2022-12-17T12:48:39.573Z,32.20
2022-12-17T12:51:48.908Z,29.67
2022-12-17T12:55:03.554Z,29.37
2022-12-17T12:58:21.695Z,30.10
2022-12-17T13:01:27.595Z,31.53
2022-12-17T13:04:53.041Z,32.70
2022-12-17T13:07:40.067Z,32.27
2022-12-17T13:10:31.270Z,33.90
2022-12-17T13:13:18.665Z,34.73
2022-12-17T13:16:26.126Z,39.93
2022-12-17T13:19:31.766Z,40.73
2022-12-17T13:22:24.098Z,38.60
2022-12-17T13:25:37.512Z,36.43
2022-12-17T13:28:31.099Z,38.53
2022-12-17T13:31:25.463Z,38.23
2022-12-17T13:34:20.811Z,36.30
2022-12-17T13:37:17.736Z,37.87
2022-12-17T13:40:30.148Z,38.47
2022-12-17T13:43:23.981Z,38.30
2022-12-17T13:46:20.173Z,37.33
2022-12-17T13:49:18.895Z,36.53
2022-12-17T13:52:16.636Z,32.90
2022-12-17T13:55:17.467Z,38.50
2022-12-17T13:58:04.402Z,37.00
2022-12-17T14:00:51.585Z,41.77
2022-12-17T14:06:46.202Z,36.90
2022-12-17T14:09:40.901Z,34.00
2022-12-17T14:12:29.989Z,36.60
2022-12-17T14:15:28.329Z,37.90
2022-12-17T14:18:20.696Z,36.30
2022-12-17T14:21:09.955Z,33.23
2022-12-17T14:23:57.865Z,33.87
2022-12-17T14:26:52.846Z,35.40
2022-12-17T14:29:46.700Z,37.30
2022-12-17T14:32:35.909Z,39.13
2022-12-17T14:35:31.871Z,39.87
2022-12-17T14:38:36.892Z,36.53
2022-12-17T14:41:44.791Z,39.20
2022-12-17T14:44:33.292Z,33.00
2022-12-17T14:47:29.796Z,39.10
2022-12-17T14:50:16.649Z,38.83
2022-12-17T14:53:33.464Z,34.73
2022-12-17T14:56:23.875Z,41.60
2022-12-17T14:59:33.696Z,42.37
2022-12-17T15:02:23.982Z,39.30
2022-12-17T15:05:15.869Z,40.87
2022-12-17T15:08:05.137Z,38.93
2022-12-17T15:10:52.127Z,40.20
2022-12-17T15:13:39.076Z,43.67
2022-12-17T15:16:26.074Z,41.70
2022-12-17T15:19:13.038Z,41.13
2022-12-17T15:21:59.983Z,38.50
2022-12-17T15:24:46.894Z,42.67
2022-12-17T15:27:33.884Z,43.57
2022-12-17T15:30:20.817Z,40.90
2022-12-17T15:33:08.862Z,43.03
2022-12-17T15:35:58.280Z,40.93
2022-12-17T15:38:46.353Z,40.40
2022-12-17T15:41:51.852Z,41.83
2022-12-17T15:44:38.744Z,46.33
2022-12-17T15:47:25.658Z,47.13
2022-12-17T15:50:12.568Z,43.73
2022-12-17T15:52:59.558Z,42.40
2022-12-17T15:55:46.479Z,45.87
2022-12-17T15:58:33.529Z,51.63
2022-12-17T16:01:20.922Z,61.63
2022-12-17T16:04:16.816Z,46.80
2022-12-17T16:07:06.257Z,45.17
2022-12-17T16:09:53.209Z,46.80
2022-12-17T16:12:40.595Z,48.93
2022-12-17T16:15:27.626Z,57.00
2022-12-17T16:18:16.044Z,49.53
2022-12-17T16:21:04.410Z,47.20
2022-12-17T16:23:51.384Z,47.17
2022-12-17T16:26:38.417Z,46.73
2022-12-17T16:29:25.380Z,60.73
2022-12-17T16:32:12.560Z,54.73
2022-12-17T16:34:59.791Z,56.43
2022-12-17T16:37:46.863Z,53.17
2022-12-17T16:40:33.764Z,58.53
2022-12-17T16:43:20.809Z,52.87
2022-12-17T16:46:26.395Z,54.40
2022-12-17T16:49:22.745Z,53.30
2022-12-17T16:52:09.627Z,54.13
2022-12-17T16:54:56.603Z,64.57
2022-12-17T16:57:43.500Z,71.40
2022-12-17T17:00:30.470Z,69.93
2022-12-17T17:03:17.480Z,66.73
2022-12-17T17:06:04.885Z,62.17
2022-12-17T17:08:51.800Z,64.23
2022-12-17T17:11:39.140Z,64.63
2022-12-17T17:14:26.642Z,63.43
2022-12-17T17:17:13.579Z,68.63
2022-12-17T17:20:00.458Z,64.67
2022-12-17T17:22:47.440Z,66.73
2022-12-17T17:25:57.552Z,65.93
2022-12-17T17:28:44.799Z,65.53
2022-12-17T17:32:08.476Z,71.53
2022-12-17T17:34:40.424Z,65.23
2022-12-17T17:37:28.004Z,63.90
2022-12-17T17:40:15.049Z,69.90
2022-12-17T17:43:01.944Z,63.97
2022-12-17T17:45:48.999Z,70.07
2022-12-17T17:48:36.759Z,74.53
2022-12-17T17:54:50.823Z,72.93
2022-12-17T17:57:37.732Z,69.87
2022-12-17T18:00:25.570Z,85.53
2022-12-17T18:03:14.987Z,76.07
2022-12-17T18:06:03.342Z,83.93
2022-12-17T18:08:50.315Z,82.57
2022-12-17T18:11:39.378Z,74.87
2022-12-17T18:14:27.350Z,81.47
2022-12-17T18:17:14.794Z,88.47
2022-12-17T18:20:01.715Z,85.97
2022-12-17T18:22:50.462Z,100.37
2022-12-17T18:25:38.015Z,81.93
2022-12-17T18:28:25.084Z,87.30
2022-12-17T18:31:24.200Z,80.60
2022-12-17T18:34:13.462Z,90.10
2022-12-17T18:37:00.387Z,85.20
2022-12-17T18:39:48.346Z,88.33
2022-12-17T18:42:53.804Z,83.07
2022-12-17T18:45:41.362Z,86.10
2022-12-17T18:48:29.899Z,78.87
2022-12-17T18:51:16.840Z,77.13
2022-12-17T18:54:06.777Z,88.30
2022-12-17T18:57:02.952Z,91.97
2022-12-17T18:59:50.189Z,81.83
2022-12-17T19:02:37.536Z,84.90
2022-12-17T19:05:25.473Z,79.30
2022-12-17T19:08:13.369Z,76.73
2022-12-17T19:11:05.571Z,87.33
2022-12-17T19:13:53.008Z,78.27
2022-12-17T19:16:40.046Z,85.50
2022-12-17T19:19:27.351Z,76.13
2022-12-17T19:22:14.296Z,83.43
2022-12-17T19:25:01.238Z,82.87
2022-12-17T19:27:48.128Z,81.70
2022-12-17T19:30:35.120Z,85.73
2022-12-17T19:33:22.025Z,73.23
2022-12-17T19:36:12.639Z,81.30
2022-12-17T19:39:02.225Z,85.00
2022-12-17T19:41:50.348Z,85.83
2022-12-17T19:44:37.216Z,79.00
2022-12-17T19:47:24.740Z,78.23
2022-12-17T19:50:11.676Z,76.03
2022-12-17T19:52:58.628Z,75.10
2022-12-17T19:55:45.559Z,71.90
2022-12-17T19:58:32.500Z,82.53
2022-12-17T20:01:31.377Z,82.73
2022-12-17T20:04:19.105Z,72.43
2022-12-17T20:07:06.048Z,75.43
2022-12-17T20:09:53.882Z,66.87
2022-12-17T20:12:40.884Z,61.50
2022-12-17T20:15:27.811Z,64.17
2022-12-17T20:18:14.795Z,62.67
2022-12-17T20:21:06.054Z,66.27
2022-12-17T20:23:53.083Z,62.57
2022-12-17T20:26:41.037Z,60.27
2022-12-17T20:29:28.851Z,68.20
2022-12-17T20:32:19.439Z,61.33
2022-12-17T20:35:07.308Z,60.97
2022-12-17T20:37:54.196Z,65.47
2022-12-17T20:40:41.705Z,67.53
2022-12-17T20:43:28.651Z,60.60
2022-12-17T20:46:15.924Z,51.97
2022-12-17T20:49:05.493Z,54.10
2022-12-17T20:51:52.928Z,54.30
2022-12-17T20:54:40.703Z,57.23
2022-12-17T20:57:27.599Z,52.77
2022-12-17T21:00:14.682Z,52.73
2022-12-17T21:03:01.683Z,60.50
2022-12-17T21:05:48.712Z,59.23
2022-12-17T21:08:36.729Z,62.43
2022-12-17T21:11:26.944Z,56.30
2022-12-17T21:14:17.079Z,53.67
2022-12-17T21:17:05.074Z,52.87
2022-12-17T21:19:52.301Z,50.73
2022-12-17T21:22:40.779Z,51.60
2022-12-17T21:25:27.771Z,59.23
2022-12-17T21:28:14.694Z,58.27
2022-12-17T21:31:06.199Z,50.90
2022-12-17T21:33:57.166Z,52.07
2022-12-17T21:36:45.898Z,55.67
2022-12-17T21:39:33.470Z,47.67
2022-12-17T21:42:39.949Z,50.10
2022-12-17T21:45:26.832Z,47.70
2022-12-17T21:48:15.126Z,44.90
2022-12-17T21:51:05.438Z,41.07
2022-12-17T21:53:59.486Z,37.63
2022-12-17T21:56:46.595Z,43.37
2022-12-17T21:59:33.554Z,43.63
2022-12-17T22:02:20.651Z,41.73
2022-12-17T22:05:09.484Z,39.67
2022-12-17T22:07:59.455Z,44.93
2022-12-17T22:10:48.196Z,41.63
2022-12-17T22:13:55.948Z,43.50
2022-12-17T22:16:48.933Z,41.47
2022-12-17T22:19:35.945Z,45.77
2022-12-17T22:22:23.918Z,42.80
2022-12-17T22:25:12.711Z,42.23
2022-12-17T22:27:59.780Z,39.80
2022-12-17T22:31:05.594Z,44.47
2022-12-17T22:34:52.373Z,39.37
2022-12-17T22:39:25.138Z,46.03
2022-12-17T22:44:17.209Z,43.17
2022-12-17T22:44:41.789Z,38.13
2022-12-17T22:46:37.105Z,44.83
2022-12-17T22:49:24.108Z,41.97
2022-12-17T22:52:11.281Z,46.43
2022-12-17T22:54:58.492Z,39.30
2022-12-17T22:57:46.076Z,44.23
2022-12-17T23:00:35.529Z,45.37
2022-12-17T23:03:22.523Z,41.30
2022-12-17T23:06:17.602Z,45.60
2022-12-17T23:09:06.434Z,39.23
2022-12-17T23:11:53.398Z,41.10
2022-12-17T23:14:40.280Z,40.10
2022-12-17T23:17:27.238Z,44.43
2022-12-17T23:20:14.455Z,48.00
2022-12-17T23:23:01.596Z,44.23
2022-12-17T23:25:48.707Z,41.03
2022-12-17T23:28:36.210Z,42.53
2022-12-17T23:31:23.213Z,36.40
2022-12-17T23:34:10.160Z,37.03
2022-12-17T23:36:57.221Z,41.73
2022-12-17T23:39:44.197Z,43.10
2022-12-17T23:42:31.248Z,39.30
2022-12-17T23:45:18.193Z,41.50
2022-12-17T23:48:05.306Z,40.73
2022-12-17T23:50:52.240Z,41.47
2022-12-17T23:53:39.489Z,45.13
2022-12-17T23:56:28.255Z,41.87
2022-12-17T23:59:15.241Z,34.13
